createdAt,value
2022-12-24T00:01:19.568Z,13.82
2022-12-24T00:03:46.884Z,14.45
2022-12-24T00:06:19.964Z,15.10
2022-12-24T00:08:47.711Z,16.75
2022-12-24T00:11:14.988Z,16.55
2022-12-24T00:13:42.209Z,16.50
2022-12-24T00:16:09.251Z,17.45
2022-12-24T00:18:40.075Z,17.45
2022-12-24T00:23:40.622Z,17.50
2022-12-24T00:26:08.116Z,18.15
2022-12-24T00:28:35.338Z,17.63
2022-12-24T00:31:16.037Z,17.83
2022-12-24T00:33:45.276Z,18.35
2022-12-24T00:36:12.460Z,18.17
2022-12-24T00:38:39.956Z,17.92
2022-12-24T00:41:24.649Z,18.55
2022-12-24T00:43:54.749Z,19.13
2022-12-24T00:46:23.483Z,18.52
2022-12-24T00:48:50.847Z,18.52
2022-12-24T00:51:18.584Z,19.42
2022-12-24T00:53:46.031Z,18.60
2022-12-24T00:56:13.482Z,20.70
2022-12-24T00:58:40.811Z,20.13
2022-12-24T01:01:08.059Z,19.48
2022-12-24T01:03:38.367Z,20.05
2022-12-24T01:06:14.038Z,20.20
2022-12-24T01:08:41.635Z,20.55
2022-12-24T01:11:10.288Z,21.65
2022-12-24T01:13:38.337Z,21.13
2022-12-24T01:16:19.193Z,22.55
2022-12-24T01:18:46.582Z,21.60
2022-12-24T01:21:15.203Z,21.42
2022-12-24T01:23:42.271Z,22.38
2022-12-24T01:26:12.374Z,21.60
2022-12-24T01:28:39.894Z,22.15
2022-12-24T01:31:17.125Z,20.25
2022-12-24T01:33:45.460Z,19.63
2022-12-24T01:36:14.249Z,19.88
2022-12-24T01:38:41.826Z,18.77
2022-12-24T01:41:37.692Z,18.48
2022-12-24T01:44:36.060Z,18.65
2022-12-24T01:47:09.538Z,16.83
2022-12-24T01:49:41.226Z,16.52
2022-12-24T01:52:15.961Z,16.08
2022-12-24T01:55:04.061Z,14.15
2022-12-24T01:57:41.744Z,13.40
2022-12-24T02:00:13.089Z,11.82
2022-12-24T02:02:44.478Z,12.13
2022-12-24T02:05:43.116Z,12.50
2022-12-24T02:08:11.215Z,12.18
2022-12-24T02:10:38.409Z,11.20
2022-12-24T02:13:06.744Z,10.80
2022-12-24T02:15:56.812Z,11.25
2022-12-24T02:18:41.619Z,10.55
2022-12-24T02:21:28.173Z,9.38
2022-12-24T02:27:21.787Z,8.90
2022-12-24T02:30:24.633Z,8.85
2022-12-24T02:33:24.922Z,7.65
2022-12-24T02:36:11.731Z,7.13
2022-12-24T02:38:53.007Z,6.40
2022-12-24T02:41:48.867Z,5.93
2022-12-24T02:44:16.577Z,5.53
2022-12-24T02:46:44.004Z,5.68
2022-12-24T02:49:11.700Z,6.75
2022-12-24T02:51:38.919Z,7.30
2022-12-24T02:54:06.720Z,7.18
2022-12-24T02:56:50.543Z,7.68
2022-12-24T02:59:35.591Z,7.60
2022-12-24T03:02:46.554Z,8.25
2022-12-24T03:05:37.937Z,8.13
2022-12-24T03:08:22.091Z,7.68
2022-12-24T03:10:56.822Z,7.00
2022-12-24T03:13:25.542Z,7.28
2022-12-24T03:15:53.097Z,7.22
2022-12-24T03:18:27.180Z,7.32
2022-12-24T03:21:06.775Z,6.93
2022-12-24T03:23:35.035Z,7.03
2022-12-24T03:26:07.741Z,7.97
2022-12-24T03:28:35.686Z,6.40
2022-12-24T03:31:06.006Z,6.32
2022-12-24T03:33:33.639Z,7.35
2022-12-24T03:36:00.993Z,7.20
2022-12-24T03:38:28.020Z,6.97
2022-12-24T03:40:55.257Z,6.93
2022-12-24T03:43:22.534Z,7.00
2022-12-24T03:45:49.707Z,6.63
2022-12-24T03:48:16.928Z,7.47
2022-12-24T03:50:44.092Z,7.07
2022-12-24T03:53:11.178Z,7.38
2022-12-24T03:55:39.596Z,8.05
2022-12-24T03:58:06.944Z,7.28
2022-12-24T04:00:34.124Z,6.57
2022-12-24T04:03:01.369Z,7.32
2022-12-24T04:05:28.451Z,6.95
2022-12-24T04:07:55.517Z,6.25
2022-12-24T04:10:22.725Z,7.28
2022-12-24T04:12:49.833Z,7.38
2022-12-24T04:15:16.984Z,6.68
2022-12-24T04:17:45.531Z,7.22
2022-12-24T04:20:13.119Z,6.85
2022-12-24T04:22:40.707Z,7.30
2022-12-24T04:25:08.807Z,7.25
2022-12-24T04:27:35.831Z,7.93
2022-12-24T04:30:03.231Z,7.72
2022-12-24T04:32:30.411Z,7.95
2022-12-24T04:34:57.837Z,7.97
2022-12-24T04:37:24.994Z,7.80
2022-12-24T04:39:52.016Z,7.75
2022-12-24T04:42:19.373Z,8.07
2022-12-24T04:44:46.384Z,7.70
2022-12-24T04:47:13.374Z,8.27
2022-12-24T04:49:40.547Z,7.30
2022-12-24T04:52:07.631Z,8.38
2022-12-24T04:54:34.808Z,7.93
2022-12-24T04:57:01.907Z,8.30
2022-12-24T04:59:28.973Z,7.85
2022-12-24T05:01:56.179Z,8.93
2022-12-24T05:04:23.472Z,8.18
2022-12-24T05:06:50.539Z,8.43
2022-12-24T05:09:17.695Z,7.72
2022-12-24T05:11:44.854Z,9.07
2022-12-24T05:14:12.127Z,7.68
2022-12-24T05:16:39.327Z,7.53
2022-12-24T05:19:06.405Z,8.48
2022-12-24T05:21:33.508Z,7.78
2022-12-24T05:24:19.498Z,7.75
2022-12-24T05:26:55.667Z,8.55
2022-12-24T05:29:23.619Z,8.43
2022-12-24T05:31:50.922Z,8.48
2022-12-24T05:34:18.205Z,8.77
2022-12-24T05:36:45.887Z,7.65
2022-12-24T05:39:17.913Z,8.23
2022-12-24T05:41:46.223Z,8.38
2022-12-24T05:44:14.768Z,8.10
2022-12-24T05:46:42.306Z,8.15
2022-12-24T05:49:09.624Z,8.25
2022-12-24T05:51:37.050Z,7.88
2022-12-24T05:54:05.141Z,9.35
2022-12-24T05:56:32.777Z,7.85
2022-12-24T05:58:59.962Z,7.57
2022-12-24T06:01:27.928Z,8.73
2022-12-24T06:03:57.711Z,8.93
2022-12-24T06:06:28.301Z,8.48
2022-12-24T06:08:55.998Z,8.77
2022-12-24T06:11:26.979Z,8.88
2022-12-24T06:13:55.125Z,8.65
2022-12-24T06:16:24.035Z,8.48
2022-12-24T06:18:52.202Z,8.75
2022-12-24T06:21:19.790Z,8.60
2022-12-24T06:23:47.777Z,8.13
2022-12-24T06:26:19.473Z,8.25
2022-12-24T06:28:47.378Z,8.45
2022-12-24T06:31:18.668Z,8.93
2022-12-24T06:33:45.938Z,9.57
2022-12-24T06:36:18.942Z,8.55
2022-12-24T06:38:47.867Z,8.55
2022-12-24T06:41:16.041Z,9.02
2022-12-24T06:43:52.570Z,8.95
2022-12-24T06:46:20.663Z,8.45
2022-12-24T06:48:48.506Z,8.88
2022-12-24T06:51:19.701Z,8.20
2022-12-24T06:53:48.069Z,9.07
2022-12-24T06:56:15.435Z,8.13
2022-12-24T06:58:43.156Z,8.50
2022-12-24T07:01:14.209Z,8.38
2022-12-24T07:03:41.845Z,7.95
2022-12-24T07:06:25.472Z,8.85
2022-12-24T07:08:52.823Z,8.27
2022-12-24T07:11:21.003Z,7.38
2022-12-24T07:13:48.413Z,8.02
2022-12-24T07:16:15.881Z,8.02
2022-12-24T07:18:44.195Z,7.10
2022-12-24T07:21:11.232Z,7.32
2022-12-24T07:23:38.422Z,8.32
2022-12-24T07:26:07.247Z,7.15
2022-12-24T07:28:34.427Z,7.50
2022-12-24T07:31:01.627Z,7.65
2022-12-24T07:33:29.228Z,6.47
2022-12-24T07:36:01.569Z,6.78
2022-12-24T07:38:29.503Z,7.03
2022-12-24T07:40:57.860Z,7.45
2022-12-24T07:43:26.041Z,7.53
2022-12-24T07:45:58.526Z,7.20
2022-12-24T07:48:27.803Z,7.25
2022-12-24T07:50:56.644Z,7.45
2022-12-24T07:53:26.124Z,7.88
2022-12-24T07:55:53.896Z,7.30
2022-12-24T07:58:21.985Z,7.05
2022-12-24T08:00:49.193Z,7.28
2022-12-24T08:03:19.227Z,7.43
2022-12-24T08:05:47.461Z,6.97
2022-12-24T08:08:14.846Z,7.20
2022-12-24T08:10:45.658Z,7.30
2022-12-24T08:13:14.087Z,6.75
2022-12-24T08:15:41.469Z,7.38
2022-12-24T08:18:11.949Z,7.40
2022-12-24T08:20:41.245Z,7.70
2022-12-24T08:23:09.671Z,8.18
2022-12-24T08:25:37.781Z,7.82
2022-12-24T08:28:06.226Z,7.13
2022-12-24T08:30:34.137Z,7.18
2022-12-24T08:33:01.595Z,7.72
2022-12-24T08:35:28.893Z,6.90
2022-12-24T08:37:56.446Z,7.43
2022-12-24T08:40:24.023Z,8.38
2022-12-24T08:42:51.501Z,7.30
2022-12-24T08:45:18.910Z,7.38
2022-12-24T08:47:46.207Z,7.85
2022-12-24T08:50:13.597Z,7.65
2022-12-24T08:52:40.765Z,6.80
2022-12-24T08:55:08.552Z,7.65
2022-12-24T08:57:37.585Z,8.18
2022-12-24T09:00:09.606Z,7.97
2022-12-24T09:02:37.170Z,8.10
2022-12-24T09:05:05.236Z,7.68
2022-12-24T09:07:33.160Z,8.38
2022-12-24T09:10:00.377Z,8.48
2022-12-24T09:12:27.582Z,8.85
2022-12-24T09:14:59.555Z,8.55
2022-12-24T09:17:28.475Z,8.27
2022-12-24T09:19:55.539Z,8.77
2022-12-24T09:22:22.820Z,8.70
2022-12-24T09:24:49.979Z,9.43
2022-12-24T09:27:17.245Z,8.60
2022-12-24T09:29:44.563Z,8.55
2022-12-24T09:32:11.791Z,8.02
2022-12-24T09:34:40.213Z,8.77
2022-12-24T09:37:07.492Z,8.43
2022-12-24T09:39:34.721Z,7.85
2022-12-24T09:42:42.181Z,8.23
2022-12-24T09:48:00.325Z,8.32
2022-12-24T09:51:06.278Z,8.55
2022-12-24T09:53:50.483Z,7.05
2022-12-24T09:56:26.249Z,7.90
2022-12-24T09:59:01.017Z,7.47
2022-12-24T10:01:32.144Z,6.20
2022-12-24T10:04:11.614Z,6.93
2022-12-24T10:06:48.549Z,6.50
2022-12-24T10:09:34.688Z,5.97
2022-12-24T10:12:14.505Z,5.68
2022-12-24T10:15:10.609Z,6.15
2022-12-24T10:18:01.743Z,6.50
2022-12-24T10:21:08.197Z,5.63
2022-12-24T10:23:59.456Z,5.82
2022-12-24T10:27:01.534Z,5.97
2022-12-24T10:29:34.719Z,5.80
2022-12-24T10:32:30.583Z,6.15
2022-12-24T10:35:15.725Z,5.80
2022-12-24T10:37:47.283Z,6.82
2022-12-24T10:40:45.046Z,6.30
2022-12-24T10:43:19.265Z,6.10
2022-12-24T10:45:56.161Z,5.97
2022-12-24T10:48:37.710Z,6.40
2022-12-24T10:51:46.536Z,6.10
2022-12-24T10:54:27.029Z,6.18
2022-12-24T10:57:01.054Z,6.78
2022-12-24T10:59:33.920Z,6.47
2022-12-24T11:02:02.378Z,6.63
2022-12-24T11:04:33.012Z,7.90
2022-12-24T11:07:06.664Z,7.18
2022-12-24T11:09:40.453Z,6.78
2022-12-24T11:12:19.245Z,7.35
2022-12-24T11:14:46.379Z,7.60
2022-12-24T11:17:23.852Z,7.78
2022-12-24T11:19:51.378Z,7.97
2022-12-24T11:22:28.484Z,7.30
2022-12-24T11:25:20.249Z,7.30
2022-12-24T11:27:51.413Z,8.10
2022-12-24T11:30:27.545Z,8.63
2022-12-24T11:33:00.989Z,8.43
2022-12-24T11:35:34.455Z,8.68
2022-12-24T11:38:01.594Z,8.05
2022-12-24T11:40:37.385Z,7.97
2022-12-24T11:43:14.323Z,8.00
2022-12-24T11:45:56.781Z,7.18
2022-12-24T11:48:34.697Z,7.22
2022-12-24T11:51:05.431Z,6.88
2022-12-24T11:53:48.186Z,6.28
2022-12-24T11:56:33.251Z,6.97
2022-12-24T11:59:10.583Z,7.00
2022-12-24T12:02:16.751Z,7.28
2022-12-24T12:04:48.961Z,6.18
2022-12-24T12:07:26.147Z,6.97
2022-12-24T12:10:04.128Z,6.70
2022-12-24T12:12:48.275Z,6.78
2022-12-24T12:15:25.720Z,6.43
2022-12-24T12:18:13.266Z,6.07
2022-12-24T12:20:54.688Z,6.30
2022-12-24T12:23:58.089Z,5.93
2022-12-24T12:26:28.638Z,5.72
2022-12-24T12:29:25.613Z,5.88
2022-12-24T12:34:40.302Z,5.57
2022-12-24T12:37:31.876Z,5.45
2022-12-24T12:39:59.468Z,6.28
2022-12-24T12:42:35.462Z,5.53
2022-12-24T12:45:37.767Z,5.97
2022-12-24T12:48:29.503Z,5.50
2022-12-24T12:51:36.054Z,5.53
2022-12-24T12:54:47.813Z,6.10
2022-12-24T12:57:20.559Z,6.13
2022-12-24T13:00:05.513Z,5.50
2022-12-24T13:03:00.234Z,5.78
2022-12-24T13:06:01.554Z,6.03
2022-12-24T13:09:09.969Z,6.38
2022-12-24T13:12:24.587Z,6.53
2022-12-24T13:15:40.826Z,5.80
2022-12-24T13:18:35.617Z,6.20
2022-12-24T13:21:03.033Z,5.82
2022-12-24T13:23:30.193Z,6.05
2022-12-24T13:25:58.774Z,5.88
2022-12-24T13:28:25.720Z,6.05
2022-12-24T13:31:02.171Z,5.70
2022-12-24T13:33:38.498Z,5.72
2022-12-24T13:36:16.595Z,4.93
2022-12-24T13:38:54.665Z,5.50
2022-12-24T13:41:40.574Z,5.25
2022-12-24T13:44:12.650Z,4.65
2022-12-24T13:47:25.341Z,5.28
2022-12-24T13:50:13.199Z,5.63
2022-12-24T13:52:52.840Z,5.00
2022-12-24T13:55:20.873Z,5.05
2022-12-24T13:58:19.726Z,5.90
2022-12-24T14:01:03.642Z,5.65
2022-12-24T14:03:43.033Z,5.47
2022-12-24T14:06:24.145Z,5.50
2022-12-24T14:08:55.876Z,5.88
2022-12-24T14:11:26.427Z,4.93
2022-12-24T14:14:27.907Z,5.53
2022-12-24T14:17:00.379Z,5.13
2022-12-24T14:19:44.094Z,5.20
2022-12-24T14:22:34.992Z,5.38
2022-12-24T14:25:14.067Z,4.80
2022-12-24T14:28:17.321Z,5.75
2022-12-24T14:30:44.539Z,4.97
2022-12-24T14:33:32.860Z,5.68
2022-12-24T14:36:02.108Z,4.57
2022-12-24T14:38:30.551Z,4.63
2022-12-24T14:41:35.360Z,5.22
2022-12-24T14:44:21.741Z,4.85
2022-12-24T14:47:01.657Z,5.05
2022-12-24T14:49:52.865Z,5.20
2022-12-24T14:53:14.995Z,4.40
2022-12-24T14:55:36.746Z,4.68
2022-12-24T15:01:34.928Z,5.03
2022-12-24T15:04:11.435Z,5.07
2022-12-24T15:06:42.897Z,5.35
2022-12-24T15:09:30.588Z,4.50
2022-12-24T15:12:04.799Z,4.50
2022-12-24T15:14:44.048Z,4.72
2022-12-24T15:17:12.960Z,4.45
2022-12-24T15:19:45.190Z,4.93
2022-12-24T15:22:26.476Z,4.70
2022-12-24T15:24:54.619Z,4.95
2022-12-24T15:27:27.976Z,4.43
2022-12-24T15:29:58.319Z,4.85
2022-12-24T15:32:25.960Z,4.72
2022-12-24T15:34:55.179Z,4.75
2022-12-24T15:37:26.476Z,4.90
2022-12-24T15:40:09.398Z,5.03
2022-12-24T15:42:41.664Z,5.15
2022-12-24T15:45:26.613Z,5.03
2022-12-24T15:48:05.948Z,6.10
2022-12-24T15:50:37.167Z,5.55
2022-12-24T15:53:20.251Z,5.40
2022-12-24T15:56:08.555Z,5.68
2022-12-24T15:58:39.711Z,6.68
2022-12-24T16:01:10.104Z,6.13
2022-12-24T16:03:55.739Z,5.93
2022-12-24T16:06:23.515Z,5.70
2022-12-24T16:08:51.937Z,5.22
2022-12-24T16:11:24.006Z,5.13
2022-12-24T16:13:54.753Z,5.30
2022-12-24T16:16:35.075Z,5.20
2022-12-24T16:19:05.717Z,5.50
2022-12-24T16:21:41.903Z,5.40
2022-12-24T16:24:18.371Z,5.40
2022-12-24T16:26:45.884Z,5.15
2022-12-24T16:29:13.054Z,5.10
2022-12-24T16:31:58.459Z,6.13
2022-12-24T16:34:31.585Z,5.65
2022-12-24T16:37:00.060Z,5.63
2022-12-24T16:39:34.597Z,5.68
2022-12-24T16:42:22.695Z,6.05
2022-12-24T16:44:53.755Z,6.00
2022-12-24T16:47:33.294Z,5.63
2022-12-24T16:50:06.324Z,5.15
2022-12-24T16:52:36.158Z,6.15
2022-12-24T16:55:03.449Z,6.30
2022-12-24T16:57:34.076Z,6.10
2022-12-24T17:00:06.659Z,5.93
2022-12-24T17:02:33.963Z,5.55
2022-12-24T17:05:01.236Z,6.15
2022-12-24T17:07:28.553Z,5.70
2022-12-24T17:09:55.796Z,6.07
2022-12-24T17:12:22.959Z,6.28
2022-12-24T17:14:49.989Z,6.15
2022-12-24T17:17:24.373Z,6.65
2022-12-24T17:19:51.827Z,7.53
2022-12-24T17:22:19.870Z,6.93
2022-12-24T17:24:47.549Z,6.85
2022-12-24T17:27:15.235Z,7.00
2022-12-24T17:29:42.560Z,6.45
2022-12-24T17:32:09.627Z,6.30
2022-12-24T17:34:36.885Z,6.40
2022-12-24T17:37:04.004Z,6.05
2022-12-24T17:39:33.643Z,7.30
2022-12-24T17:42:00.771Z,6.53
2022-12-24T17:44:28.020Z,6.70
2022-12-24T17:46:55.213Z,6.60
2022-12-24T17:49:22.380Z,7.32
2022-12-24T17:51:49.375Z,6.90
2022-12-24T17:54:16.630Z,8.23
2022-12-24T17:56:43.778Z,9.25
2022-12-24T17:59:11.030Z,10.88
2022-12-24T18:01:38.243Z,9.55
2022-12-24T18:04:06.076Z,9.27
2022-12-24T18:06:33.423Z,7.82
2022-12-24T18:09:00.657Z,7.85
2022-12-24T18:11:32.854Z,8.80
2022-12-24T18:14:02.384Z,7.95
2022-12-24T18:16:38.343Z,8.00
2022-12-24T18:21:35.522Z,8.00
2022-12-24T18:24:03.077Z,7.63
2022-12-24T18:26:31.007Z,7.68
2022-12-24T18:29:04.761Z,7.85
2022-12-24T18:31:33.749Z,7.63
2022-12-24T18:34:02.899Z,8.07
2022-12-24T18:36:30.994Z,7.53
2022-12-24T18:38:58.756Z,7.70
2022-12-24T18:41:29.357Z,7.93
2022-12-24T18:43:57.808Z,7.88
2022-12-24T18:46:29.464Z,8.02
2022-12-24T18:48:59.561Z,8.40
2022-12-24T18:51:36.128Z,8.32
2022-12-24T18:54:05.209Z,9.15
2022-12-24T18:56:32.744Z,9.15
2022-12-24T18:59:03.148Z,9.65
2022-12-24T19:01:33.772Z,10.25
2022-12-24T19:04:04.401Z,9.90
2022-12-24T19:06:31.665Z,10.23
2022-12-24T19:09:00.769Z,9.90
2022-12-24T19:11:32.150Z,9.30
2022-12-24T19:14:01.020Z,9.60
2022-12-24T19:16:30.446Z,10.10
2022-12-24T19:18:58.077Z,10.43
2022-12-24T19:21:26.066Z,10.07
2022-12-24T19:23:53.265Z,9.82
2022-12-24T19:26:21.435Z,10.05
2022-12-24T19:28:49.099Z,10.70
2022-12-24T19:31:26.351Z,10.75
2022-12-24T19:33:57.228Z,11.25
2022-12-24T19:36:28.467Z,10.48
2022-12-24T19:38:57.048Z,11.20
2022-12-24T19:41:27.917Z,11.60
2022-12-24T19:43:59.669Z,11.77
2022-12-24T19:46:34.233Z,11.07
2022-12-24T19:49:05.441Z,13.13
2022-12-24T19:51:33.990Z,12.20
2022-12-24T19:54:01.763Z,13.10
2022-12-24T19:56:31.739Z,11.90
2022-12-24T19:59:02.053Z,12.77
2022-12-24T20:01:32.702Z,12.68
2022-12-24T20:04:00.926Z,13.73
2022-12-24T20:06:32.433Z,13.50
2022-12-24T20:09:02.200Z,14.05
2022-12-24T20:11:29.948Z,14.50
2022-12-24T20:13:59.737Z,13.82
2022-12-24T20:16:27.795Z,14.93
2022-12-24T20:18:58.261Z,14.38
2022-12-24T20:21:26.527Z,15.00
2022-12-24T20:23:54.500Z,15.45
2022-12-24T20:26:26.112Z,14.50
2022-12-24T20:28:53.845Z,15.75
2022-12-24T20:31:25.273Z,16.35
2022-12-24T20:33:53.099Z,15.88
2022-12-24T20:36:22.957Z,16.67
2022-12-24T20:38:51.246Z,16.35
2022-12-24T20:41:21.847Z,16.42
2022-12-24T20:43:49.814Z,15.55
2022-12-24T20:46:20.258Z,15.32
2022-12-24T20:48:48.207Z,15.02
2022-12-24T20:51:24.421Z,19.00
2022-12-24T20:53:58.685Z,15.93
2022-12-24T20:56:26.696Z,18.02
2022-12-24T20:58:53.927Z,15.48
2022-12-24T21:01:26.239Z,14.73
2022-12-24T21:03:55.527Z,14.85
2022-12-24T21:06:24.539Z,15.57
2022-12-24T21:08:53.609Z,14.32
2022-12-24T21:11:41.050Z,15.25
2022-12-24T21:14:08.474Z,14.48
2022-12-24T21:16:37.235Z,14.63
2022-12-24T21:19:05.814Z,15.70
2022-12-24T21:21:35.218Z,14.55
2022-12-24T21:24:03.466Z,16.00
2022-12-24T21:26:31.961Z,14.00
2022-12-24T21:28:59.897Z,15.93
2022-12-24T21:31:28.253Z,16.55
2022-12-24T21:33:56.555Z,28.40
2022-12-24T21:36:24.633Z,36.40
2022-12-24T21:38:54.277Z,31.40
2022-12-24T21:41:26.107Z,16.70
2022-12-24T21:43:53.571Z,21.45
2022-12-24T21:46:25.043Z,26.15
2022-12-24T21:49:12.526Z,19.63
2022-12-24T21:51:41.237Z,19.15
2022-12-24T21:54:23.898Z,21.98
2022-12-24T21:57:37.321Z,18.13
2022-12-24T22:00:26.681Z,20.20
2022-12-24T22:02:58.075Z,17.95
2022-12-24T22:05:26.456Z,20.67
2022-12-24T22:08:12.886Z,19.20
2022-12-24T22:10:59.450Z,19.13
2022-12-24T22:13:29.677Z,19.63
2022-12-24T22:15:57.261Z,20.85
2022-12-24T22:18:26.426Z,22.27
2022-12-24T22:20:53.673Z,21.83
2022-12-24T22:23:20.896Z,21.95
2022-12-24T22:25:48.152Z,23.30
2022-12-24T22:28:15.256Z,23.98
2022-12-24T22:30:43.202Z,23.45
2022-12-24T22:33:10.898Z,23.70
2022-12-24T22:35:40.032Z,24.35
2022-12-24T22:38:09.544Z,23.52
2022-12-24T22:40:40.139Z,22.33
2022-12-24T22:43:07.311Z,23.85
2022-12-24T22:45:34.421Z,23.52
2022-12-24T22:48:02.674Z,23.23
2022-12-24T22:50:29.973Z,23.38
2022-12-24T22:52:57.151Z,23.85
2022-12-24T22:55:25.151Z,23.52
2022-12-24T22:57:52.371Z,22.58
2022-12-24T23:00:44.477Z,23.30
2022-12-24T23:03:11.995Z,23.40
2022-12-24T23:05:39.790Z,22.42
2022-12-24T23:08:07.637Z,21.70
2022-12-24T23:10:35.775Z,22.30
2022-12-24T23:13:21.525Z,21.95
2022-12-24T23:15:49.274Z,21.75
2022-12-24T23:18:16.576Z,22.27
2022-12-24T23:20:48.250Z,22.73
2022-12-24T23:23:18.868Z,21.52
2022-12-24T23:25:46.000Z,22.80
2022-12-24T23:28:13.023Z,22.13
2022-12-24T23:30:40.035Z,21.40
2022-12-24T23:33:07.253Z,20.80
2022-12-24T23:35:34.399Z,23.42
2022-12-24T23:38:01.549Z,22.42
2022-12-24T23:40:28.626Z,21.60
2022-12-24T23:42:55.651Z,26.23
2022-12-24T23:45:23.222Z,21.40
2022-12-24T23:47:50.276Z,22.20
2022-12-24T23:50:17.639Z,24.73
2022-12-24T23:52:44.753Z,23.45
2022-12-24T23:55:11.854Z,23.60
2022-12-24T23:57:38.845Z,21.65
